Virgo Phoenix — 3FMO8 — position and weather

sailwx.info

Track history (hours):
 
Tides and Currents Weather Stations Pressure Air Temp Water Temp Dewpoint Dewpoint Depression Visibility Wind Speed Wind Dir Waves Ship Positions

Virgo Phoenix

Last reported at 2016-Jul-30 01:32 UTC. Time now 2016-Jul-30 01:54 UTC.
Position N 35°31' E 139°46'.

Length 96 m; draft 5.6 m.

Type: Ship (hazmat cat C). MMSI: 370795000.

Date/timePositionNaut miles runAvg speedWind from/ knotsBaromVisibWave heightAir tempDewpointWater temp
2016-Jul-30 01:32N 35°31' E 139°46'0 0.0
2016-Jul-30 00:29N 35°31' E 139°46'0 0.0
2016-Jul-29 23:32N 35°31' E 139°46'5 5.0
2016-Jul-29 22:34N 35°27' E 139°43'1 1.0
2016-Jul-29 21:31N 35°28' E 139°44'0 0.0
2016-Jul-29 20:31N 35°28' E 139°44'0 0.0
2016-Jul-29 19:31N 35°28' E 139°44'0 0.0
2016-Jul-29 18:33N 35°28' E 139°44'9 8.8
2016-Jul-29 17:33N 35°19' E 139°44'1212.1
2016-Jul-29 16:33N 35°07' E 139°45'1414.0
2016-Jul-29 15:32N 34°57' E 139°32'1414.4
2016-Jul-29 14:33N 34°48' E 139°19'218 4.8
2016-Jul-27 17:29N 34°08' E 134°59'1213.2
2016-Jul-27 16:33N 34°20' E 134°59'1312.9
2016-Jul-27 15:33N 34°28' E 135°11'1312.7
2016-Jul-27 14:33N 34°34' E 135°25'1 0.1
2016-Jul-27 03:33N 34°33' E 135°24'1212.3
2016-Jul-27 02:33N 34°37' E 135°09'2 0.4
2016-Jul-26 22:33N 34°39' E 135°10'0 0.4
2016-Jul-26 21:33N 34°38' E 135°10'0 0.1
2016-Jul-26 20:33N 34°38' E 135°10'0 0.1
2016-Jul-26 19:33N 34°38' E 135°10'0 0.0
2016-Jul-26 18:33N 34°38' E 135°10'0 0.0
2016-Jul-26 17:33N 34°38' E 135°10'0 0.0
2016-Jul-26 16:33N 34°38' E 135°10'0 0.0
2016-Jul-26 15:33N 34°38' E 135°10'0 0.0
2016-Jul-26 14:27N 34°38' E 135°10'0 0.1
2016-Jul-26 13:33N 34°38' E 135°10'0 0.0
2016-Jul-26 12:33N 34°38' E 135°10'6 6.1
2016-Jul-26 11:33N 34°35' E 135°04'  
2016-Jul-23 10:21N 31°06' E 122°20'3113.6
2016-Jul-23 08:04N 31°18' E 121°47'611.4
2016-Jul-23 07:32N 31°20' E 121°40'10 9.9
2016-Jul-23 06:32N 31°25' E 121°30'2211.1
2016-Jul-23 04:34N 31°40' E 121°11'2612.7
2016-Jul-23 02:29N 31°59' E 120°50'1212.6
2016-Jul-23 01:33N 31°60' E 120°36'1312.3
2016-Jul-23 00:31N 31°59' E 120°21'1313.1
2016-Jul-22 23:30N 31°57' E 120°05'16 0.3
2016-Jul-21 00:08N 31°58' E 120°24'  
Track history (hours):
 
Tides and Currents Weather Stations Pressure Air Temp Water Temp Dewpoint Dewpoint Depression Visibility Wind Speed Wind Dir Waves Ship Positions

Virgo Phoenix

Last reported at 2016-Jul-30 01:32 UTC. Time now 2016-Jul-30 01:54 UTC.
Position N 35°31' E 139°46'.

Length 96 m; draft 5.6 m.

Type: Ship (hazmat cat C). MMSI: 370795000.

Date/timePositionNaut miles runAvg speedWind from/ knotsBaromVisibWave heightAir tempDewpointWater temp
2016-Jul-30 01:32N 35°31' E 139°46'0 0.0
2016-Jul-30 00:29N 35°31' E 139°46'0 0.0
2016-Jul-29 23:32N 35°31' E 139°46'5 5.0
2016-Jul-29 22:34N 35°27' E 139°43'1 1.0
2016-Jul-29 21:31N 35°28' E 139°44'0 0.0
2016-Jul-29 20:31N 35°28' E 139°44'0 0.0
2016-Jul-29 19:31N 35°28' E 139°44'0 0.0
2016-Jul-29 18:33N 35°28' E 139°44'9 8.8
2016-Jul-29 17:33N 35°19' E 139°44'1212.1
2016-Jul-29 16:33N 35°07' E 139°45'1414.0
2016-Jul-29 15:32N 34°57' E 139°32'1414.4
2016-Jul-29 14:33N 34°48' E 139°19'218 4.8
2016-Jul-27 17:29N 34°08' E 134°59'1213.2
2016-Jul-27 16:33N 34°20' E 134°59'1312.9
2016-Jul-27 15:33N 34°28' E 135°11'1312.7
2016-Jul-27 14:33N 34°34' E 135°25'1 0.1
2016-Jul-27 03:33N 34°33' E 135°24'1212.3
2016-Jul-27 02:33N 34°37' E 135°09'2 0.4
2016-Jul-26 22:33N 34°39' E 135°10'0 0.4
2016-Jul-26 21:33N 34°38' E 135°10'0 0.1
2016-Jul-26 20:33N 34°38' E 135°10'0 0.1
2016-Jul-26 19:33N 34°38' E 135°10'0 0.0
2016-Jul-26 18:33N 34°38' E 135°10'0 0.0
2016-Jul-26 17:33N 34°38' E 135°10'0 0.0
2016-Jul-26 16:33N 34°38' E 135°10'0 0.0
2016-Jul-26 15:33N 34°38' E 135°10'0 0.0
2016-Jul-26 14:27N 34°38' E 135°10'0 0.1
2016-Jul-26 13:33N 34°38' E 135°10'0 0.0
2016-Jul-26 12:33N 34°38' E 135°10'6 6.1
2016-Jul-26 11:33N 34°35' E 135°04'  
2016-Jul-23 10:21N 31°06' E 122°20'3113.6
2016-Jul-23 08:04N 31°18' E 121°47'611.4
2016-Jul-23 07:32N 31°20' E 121°40'10 9.9
2016-Jul-23 06:32N 31°25' E 121°30'2211.1
2016-Jul-23 04:34N 31°40' E 121°11'2612.7
2016-Jul-23 02:29N 31°59' E 120°50'1212.6
2016-Jul-23 01:33N 31°60' E 120°36'1312.3
2016-Jul-23 00:31N 31°59' E 120°21'1313.1
2016-Jul-22 23:30N 31°57' E 120°05'16 0.3
2016-Jul-21 00:08N 31°58' E 120°24'  

Dump ship's entire track history